Latest Weather Observations for Cummins Airport

IDS60801

Issued at 11:05 am CDT Tuesday 25 November 2014 (issued every 30 minutes, with the page automatically refreshed every 10 minutes)

About weather observations | Map of weather stations | Latest weather observations for SA | Other Formats
Station Details ID: 018217 Name: CUMMINS AERO Lat: -34.25 Lon: 135.71 Height: 60.11 m
Data from the previous 72 hours. | See also: Recent months at Cummins Airport
Date/Time
CDT
Temp
°C
App
Temp
°C
Dew
Point
Rel
Hum
%
Delta-T
°C
Wind Press
QNH
hPa
Press
MSL
hPa
Rain
since 9 am
mm
Dir
 
Spd
km/h
Gust
km/h
Spd
kts
Gust
kts
25/11:00am 18.7 15.1 4.8 40 6.7 W 13 19 7 10 1023.9 1023.8 0.0
25/10:30am 19.0 16.1 4.4 38 7.0 SE 9 17 5 9 1024.0 1023.9 0.0
25/10:00am 18.0 14.3 4.2 40 6.5 SSW 13 20 7 11 1024.3 1024.2 0.0
25/09:30am 17.2 13.6 4.9 44 5.9 S 13 19 7 10 1024.3 1024.2 0.0
25/09:00am 16.1 13.2 8.1 59 4.0 S 13 19 7 10 1024.1 1024.0 0.0
25/08:30am 14.8 13.0 8.1 64 3.3 S 7 9 4 5 1023.9 1023.8 0.0
25/08:00am 13.4 13.1 8.5 72 2.5 CALM 0 0 0 0 1023.6 1023.5 0.0
25/07:30am 11.2 10.8 8.1 81 1.5 CALM 0 0 0 0 1023.4 1023.3 0.0
25/07:00am 8.9 7.8 7.0 88 0.9 E 2 6 1 3 1023.2 1023.1 0.0
25/06:30am 6.8 4.7 5.6 92 0.5 ENE 6 7 3 4 1022.9 1022.8 0.0
25/06:00am 7.3 6.0 5.8 90 0.7 N 2 6 1 3 1022.5 1022.4 0.0
25/05:30am 7.7 5.5 6.2 90 0.7 NNE 7 7 4 4 1022.2 1022.1 0.0
25/05:00am 8.6 6.6 7.1 90 0.7 N 7 9 4 5 1021.9 1021.8 0.0
25/04:30am 8.7 6.9 7.0 89 0.8 NE 6 9 3 5 1021.7 1021.6 0.0
25/04:00am 7.8 5.2 6.3 90 0.7 NNE 9 11 5 6 1021.6 1021.5 0.0
25/03:30am 7.0 4.8 5.3 89 0.8 N 6 9 3 5 1021.6 1021.5 0.0
25/03:00am 7.5 4.9 6.0 90 0.7 N 9 11 5 6 1021.4 1021.3 0.0
25/02:30am 7.0 4.6 5.2 88 0.8 NE 7 9 4 5 1021.5 1021.4 0.0
25/02:00am 7.8 5.5 5.8 87 0.9 NE 7 9 4 5 1021.6 1021.5 0.0
25/01:30am 8.6 7.7 6.2 85 1.1 CALM 0 0 0 0 1021.6 1021.5 0.0
25/01:00am 9.1 8.3 6.5 84 1.2 CALM 0 0 0 0 1021.7 1021.6 0.0
25/12:30am 9.5 8.7 6.6 82 1.3 CALM 0 0 0 0 1021.7 1021.6 0.0
25/12:00am 9.0 7.7 5.9 81 1.4 W 2 6 1 3 1021.5 1021.4 0.0
 
Date/Time
CDT
Temp
°C
App
Temp
°C
Dew
Point
Rel
Hum
%
Delta-T
°C
Wind Press
QNH
hPa
Press
MSL
hPa
Rain
since 9 am
mm
Dir
 
Spd
km/h
Gust
km/h
Spd
kts
Gust
kts
24/11:30pm 10.3 8.8 6.6 78 1.7 S 4 7 2 4 1021.3 1021.2 0.0
24/11:00pm 9.6 8.7 6.0 78 1.7 CALM 0 4 0 2 1021.3 1021.2 0.0
24/10:30pm 11.1 8.6 6.6 74 2.1 SSW 9 13 5 7 1021.1 1021.0 0.0
24/10:00pm 12.5 10.6 7.4 71 2.5 WSW 7 11 4 6 1021.0 1020.9 0.0
24/09:30pm 12.5 9.4 7.4 71 2.5 SSW 13 15 7 8 1020.7 1020.6 0.0
24/09:00pm 14.0 10.2 7.5 65 3.2 SSW 17 20 9 11 1020.3 1020.2 0.0
24/08:30pm 14.8 10.5 7.1 60 3.8 SSW 19 26 10 14 1019.8 1019.7 0.0
24/08:00pm 15.8 10.5 6.8 55 4.4 SSW 24 33 13 18 1019.4 1019.3 0.0
24/07:30pm 16.6 10.0 6.1 50 5.1 SW 30 39 16 21 1019.0 1018.9 0.0
24/07:00pm 17.6 11.2 6.8 49 5.4 SW 30 39 16 21 1018.4 1018.3 0.0
24/06:30pm 18.1 11.0 5.3 43 6.2 SW 32 41 17 22 1018.2 1018.1 0.0
24/06:00pm 18.3 11.7 6.2 45 6.0 SW 30 43 16 23 1018.2 1018.1 0.0
24/05:30pm 19.1 12.7 6.9 45 6.1 SW 30 39 16 21 1017.9 1017.8 0.0
24/05:00pm 19.5 12.5 5.9 41 6.7 SW 32 41 17 22 1017.7 1017.6 0.0
24/04:36pm 20.0 13.8 6.0 40 7.0 SW 28 46 15 25 1017.4 1017.3 0.0
24/04:30pm 20.0 13.9 6.4 41 6.8 SW 28 41 15 22 1017.5 1017.4 0.0
24/04:08pm 20.4 14.0 5.2 37 7.5 WSW 28 46 15 25 1017.5 1017.4 0.0
24/04:00pm 20.3 12.9 3.9 34 7.9 WSW 32 46 17 25 1017.4 1017.3 0.0
24/03:30pm 20.0 12.1 4.5 36 7.5 WSW 35 56 19 30 1017.2 1017.1 0.0
24/03:00pm 20.9 13.6 4.5 34 8.0 SW 32 44 17 24 1017.1 1017.0 0.0
24/02:30pm 20.9 13.8 5.3 36 7.7 SW 32 48 17 26 1017.0 1016.9 0.0
24/02:22pm 20.5 13.4 3.7 33 8.0 SSW 30 48 16 26 1017.0 1016.9 0.0
24/02:00pm 20.7 13.7 4.3 34 7.9 SSW 30 39 16 21 1017.1 1017.0 0.0
24/01:30pm 20.0 12.9 5.6 39 7.1 SSW 32 44 17 24 1017.0 1016.9 0.0
24/01:00pm 20.2 13.5 5.4 38 7.3 WSW 30 43 16 23 1016.9 1016.8 0.0
24/12:30pm 20.1 13.2 6.4 41 6.9 SW 32 43 17 23 1016.8 1016.7 0.0
24/12:00pm 19.8 12.9 6.5 42 6.7 SW 32 41 17 22 1016.5 1016.4 0.0
24/11:30am 20.4 14.7 6.7 41 6.9 WSW 26 30 14 16 1016.3 1016.2 0.0
24/11:00am 20.2 13.5 7.2 43 6.6 WSW 32 35 17 19 1016.0 1015.9 0.0
24/10:30am 19.0 12.6 8.6 51 5.4 SSW 32 41 17 22 1015.9 1015.8 0.0
24/10:00am 19.3 13.1 9.5 53 5.2 SW 32 44 17 24 1015.8 1015.6 0.0
24/09:30am 18.8 12.6 9.3 54 5.0 SSW 32 41 17 22 1015.7 1015.5 0.0
24/09:00am 19.6 13.7 10.3 55 5.0 SSW 32 39 17 21 1015.2 1015.0 0.0
24/08:30am 18.1 13.4 11.9 67 3.4 SW 28 37 15 20 1014.7 1014.5 0.0
24/08:00am 17.3 13.9 12.6 74 2.6 SW 22 30 12 16 1014.2 1014.0 0.0
24/07:30am 16.4 13.2 13.1 81 1.8 SW 22 28 12 15 1013.7 1013.5 0.0
24/07:00am 15.2 13.0 13.4 89 1.0 SW 17 24 9 13 1013.3 1013.1 0.0
24/06:30am 13.9 12.0 13.0 94 0.5 SW 15 17 8 9 1013.1 1012.9 0.0
24/06:00am 13.0 12.0 12.2 95 0.4 SW 9 9 5 5 1012.6 1012.4 0.0
24/05:30am 12.8 11.4 12.2 96 0.3 SW 11 13 6 7 1012.3 1012.1 0.0
24/05:00am 12.7 11.6 11.9 95 0.4 SSW 9 11 5 6 1011.8 1011.6 0.0
24/04:30am 13.4 12.4 12.3 93 0.6 SW 9 11 5 6 1011.6 1011.4 0.0
24/04:00am 13.2 12.1 11.9 92 0.7 SW 9 11 5 6 1011.2 1011.0 0.0
24/03:30am 13.9 12.2 12.3 90 0.9 SSW 13 17 7 9 1010.5 1010.4 0.0
24/03:00am 14.2 11.7 12.2 88 1.1 SSW 17 20 9 11 1010.3 1010.2 0.0
24/02:30am 14.4 11.8 12.1 86 1.2 SSW 17 24 9 13 1010.2 1010.1 0.0
24/02:00am 14.9 12.3 11.9 82 1.6 S 17 19 9 10 1010.1 1010.0 0.0
24/01:30am 15.2 12.6 12.0 81 1.7 SSW 17 20 9 11 1010.2 1010.1 0.0
24/01:00am 15.6 12.9 11.8 78 2.1 SSW 17 22 9 12 1010.2 1010.1 0.0
24/12:30am 16.0 13.3 11.6 75 2.4 S 17 20 9 11 1010.2 1010.1 0.0
24/12:00am 16.1 13.4 11.7 75 2.4 S 17 20 9 11 1010.3 1010.2 0.0
 
Date/Time
CDT
Temp
°C
App
Temp
°C
Dew
Point
Rel
Hum
%
Delta-T
°C
Wind Press
QNH
hPa
Press
MSL
hPa
Rain
since 9 am
mm
Dir
 
Spd
km/h
Gust
km/h
Spd
kts
Gust
kts
23/11:30pm 16.6 13.3 11.7 73 2.7 S 20 26 11 14 1010.5 1010.4 0.0
23/11:00pm 17.2 14.1 12.1 72 2.8 SSE 20 26 11 14 1010.3 1010.2 0.0
23/10:30pm 17.4 15.3 12.3 72 2.8 SSE 15 19 8 10 1009.9 1009.8 0.0
23/10:00pm 18.0 15.7 13.1 73 2.8 S 17 24 9 13 1009.6 1009.5 0.0
23/09:30pm 18.8 15.6 13.0 69 3.3 S 22 26 12 14 1009.2 1009.1 0.0
23/09:00pm 19.8 16.3 12.3 62 4.2 SSE 22 33 12 18 1008.9 1008.8 0.0
23/08:30pm 21.1 15.9 8.7 45 6.6 SSE 26 35 14 19 1008.5 1008.4 0.0
23/08:00pm 22.6 17.6 6.4 35 8.3 SSE 22 30 12 16 1008.3 1008.2 0.0
23/07:30pm 23.8 18.1 6.6 33 8.9 SSE 26 33 14 18 1008.2 1008.1 0.0
23/07:00pm 25.0 18.5 4.7 27 10.2 SE 28 35 15 19 1007.9 1007.8 0.0
23/06:30pm 25.9 19.9 7.0 30 10.0 SSE 28 35 15 19 1007.9 1007.8 0.0
23/06:00pm 27.3 21.1 7.7 29 10.6 SE 30 35 16 19 1007.7 1007.6 0.0
23/05:30pm 28.3 23.0 8.6 29 10.8 SE 26 33 14 18 1007.8 1007.7 0.0
23/05:00pm 28.3 23.6 9.1 30 10.6 SE 24 33 13 18 1007.6 1007.5 0.0
23/04:30pm 29.1 25.7 10.7 32 10.5 ESE 19 32 10 17 1007.8 1007.7 0.0
23/04:00pm 30.1 27.6 11.1 31 11.0 E 15 28 8 15 1008.2 1008.1 0.0
23/03:30pm 28.9 25.7 11.9 35 9.9 E 20 30 11 16 1008.7 1008.6 0.0
23/03:00pm 29.5 28.4 12.0 34 10.2 NE 9 15 5 8 1009.4 1009.3 0.0
23/02:30pm 29.2 27.0 10.8 32 10.5 SE 13 24 7 13 1009.8 1009.7 0.0
23/02:00pm 29.2 26.7 6.6 24 12.1 ESE 9 11 5 6 1010.1 1010.0 0.0
23/01:30pm 28.1 25.5 6.2 25 11.5 NE 9 13 5 7 1010.7 1010.6 0.0
23/01:00pm 27.5 25.4 6.8 27 11.0 N 7 15 4 8 1011.6 1011.4 0.0
23/12:30pm 26.9 24.2 7.4 29 10.4 SSE 11 19 6 10 1011.6 1011.4 0.0
23/12:00pm 26.4 23.8 7.9 31 9.9 SSE 11 19 6 10 1011.5 1011.3 0.0
23/11:30am 25.3 22.9 10.0 38 8.5 S 13 20 7 11 1011.6 1011.4 0.0
23/11:00am 23.7 20.7 10.7 44 7.2 S 17 24 9 13 1011.6 1011.4 0.0
23/10:30am 22.0 21.1 12.5 54 5.4 SSW 9 17 5 9 1012.3 1012.1 0.0
23/10:00am 21.0 20.5 11.9 56 5.1 NNE 6 11 3 6 1013.1 1012.9 0.0
23/09:30am 20.1 19.9 13.1 64 4.0 SSE 6 11 3 6 1012.9 1012.7 0.0
23/09:00am 19.2 18.8 12.9 67 3.6 ESE 7 13 4 7 1012.5 1012.3 0.0
23/08:30am 17.5 17.8 14.4 82 1.8 S 6 9 3 5 1012.2 1012.0 0.0
23/08:00am 15.2 16.4 13.9 92 0.7 CALM 0 0 0 0 1012.4 1012.2 0.0
23/07:30am 13.2 14.0 12.7 97 0.3 CALM 0 0 0 0 1012.1 1011.9 0.0
23/07:00am 11.6 12.0 11.1 97 0.3 CALM 0 0 0 0 1012.0 1011.8 0.0
23/06:30am 10.4 10.5 10.1 98 0.2 CALM 0 0 0 0 1011.6 1011.4 0.0
23/06:00am 10.2 9.0 9.7 97 0.3 E 6 7 3 4 1011.3 1011.1 0.0
23/05:30am 10.8 9.8 10.3 97 0.3 E 6 7 3 4 1011.2 1011.0 0.0
23/05:00am 10.1 8.7 9.6 97 0.3 ESE 7 7 4 4 1011.3 1011.1 0.0
23/04:30am 10.1 8.9 9.5 96 0.3 ENE 6 6 3 3 1011.7 1011.5 0.0
23/04:00am 10.9 10.3 10.3 96 0.3 N 4 7 2 4 1011.9 1011.7 0.0
23/03:30am 10.7 9.6 10.1 96 0.3 E 6 7 3 4 1012.0 1011.8 0.0
23/03:00am 11.1 11.3 10.5 96 0.3 CALM 0 0 0 0 1012.2 1012.0 0.0
23/02:30am 11.3 11.5 10.5 95 0.4 CALM 0 0 0 0 1012.7 1012.5 0.0
23/02:00am 11.9 12.3 11.1 95 0.4 CALM 0 0 0 0 1012.9 1012.7 0.0
23/01:30am 11.8 10.8 10.9 94 0.5 NNE 7 9 4 5 1013.0 1012.8 0.0
23/01:00am 12.2 11.7 10.9 92 0.7 NE 4 6 2 3 1013.1 1012.9 0.0
23/12:30am 12.4 12.8 11.1 92 0.7 CALM 0 0 0 0 1013.5 1013.3 0.0
23/12:00am 13.5 13.3 11.9 90 0.9 S 4 7 2 4 1013.7 1013.5 0.0
 
Date/Time
CDT
Temp
°C
App
Temp
°C
Dew
Point
Rel
Hum
%
Delta-T
°C
Wind Press
QNH
hPa
Press
MSL
hPa
Rain
since 9 am
mm
Dir
 
Spd
km/h
Gust
km/h
Spd
kts
Gust
kts
22/11:30pm 14.1 13.7 12.3 89 1.0 SE 6 7 3 4 1013.6 1013.4 0.0
22/11:00pm 14.5 14.0 12.2 86 1.3 SE 6 7 3 4 1013.7 1013.5 0.0
22/10:30pm 15.2 14.6 12.3 83 1.6 ESE 7 9 4 5 1013.8 1013.6 0.0
22/10:00pm 15.5 13.0 12.4 82 1.7 SSW 17 20 9 11 1013.2 1013.0 0.0
22/09:30pm 15.9 14.2 12.5 80 1.9 S 13 17 7 9 1012.7 1012.5 0.0
22/09:00pm 16.3 14.2 12.3 77 2.2 SSW 15 20 8 11 1012.5 1012.3 0.0
22/08:30pm 17.2 14.3 12.3 73 2.7 SSW 19 24 10 13 1012.0 1011.8 0.0
22/08:00pm 18.0 14.2 12.5 70 3.1 SSW 24 30 13 16 1011.5 1011.3 0.0
22/07:30pm 19.0 14.2 11.8 63 4.0 SW 28 35 15 19 1011.1 1010.9 0.0
22/07:00pm 20.3 14.2 9.8 51 5.6 SSW 32 37 17 20 1010.2 1010.1 0.0
22/06:30pm 21.4 15.3 9.6 47 6.4 SSW 32 39 17 21 1009.6 1009.5 0.0
22/06:00pm 22.9 17.7 10.3 45 6.9 SSW 28 41 15 22 1009.3 1009.2 0.0
22/05:30pm 23.9 19.7 11.2 44 7.1 WSW 24 35 13 19 1008.9 1008.8 0.0
22/05:00pm 24.3 18.4 9.1 38 8.2 WSW 30 43 16 23 1008.6 1008.5 0.0
22/04:30pm 24.9 19.0 9.2 37 8.6 WSW 30 39 16 21 1008.4 1008.3 0.0
22/04:00pm 25.6 20.1 9.0 35 9.0 WSW 28 41 15 22 1008.2 1008.1 0.0
22/03:30pm 26.5 21.4 10.6 37 9.0 WSW 28 41 15 22 1008.2 1008.1 0.0
22/03:00pm 26.3 20.8 10.5 37 8.9 W 30 39 16 21 1008.1 1008.0 0.0
22/02:30pm 26.2 20.8 9.5 35 9.2 W 28 39 15 21 1008.1 1008.0 0.0
22/02:00pm 26.4 20.7 6.9 29 10.3 W 26 33 14 18 1008.2 1008.1 0.0
22/01:30pm 25.8 20.8 7.9 32 9.6 W 24 32 13 17 1008.1 1008.0 0.0
22/01:00pm 25.3 21.3 10.4 39 8.3 W 22 30 12 16 1008.1 1008.0 0.0
22/12:30pm 26.0 23.4 13.8 47 7.2 W 20 24 11 13 1008.0 1007.9 0.0
22/12:00pm 23.5 21.5 15.5 60 4.8 WSW 20 24 11 13 1007.7 1007.6 0.0
22/11:30am 22.8 21.2 14.9 61 4.7 W 17 26 9 14 1007.8 1007.7 0.0

Other Formats:

Comma delimited format used in spreadsheet applications
http://www.bom.gov.au/fwo/IDS60801/IDS60801.95663.axf

JavaScript Object Notation format (JSON) in row-major order
http://www.bom.gov.au/fwo/IDS60801/IDS60801.95663.json